Time;durP1;ratioP1;P1;durP2;ratioP2;P2;SDS_P1;SDS_P2;PMS_P1;PMS_P2;Temp;Humidity;BMP_temperature;BMP_pressure;BME280_temperature;BME280_humidity;BME280_pressure;Samples;Min_cycle;Max_cycle;Signal;HPM_P1;HPM_P2
2022/01/21 00:00:38;;;;;;;0.00;0.00;;;0.80;99.90;;;;;;5082449;28;20047;-63
2022/01/21 00:03:04;;;;;;;0.00;0.00;;;0.80;99.90;;;;;;5082106;28;20169;-62
2022/01/21 00:05:30;;;;;;;0.00;0.00;;;0.80;99.90;;;;;;5082250;28;20293;-62
2022/01/21 00:07:55;;;;;;;0.00;0.00;;;1.20;99.90;;;;;;5082060;28;20044;-63
2022/01/21 00:10:21;;;;;;;0.00;0.00;;;0.80;99.90;;;;;;5080873;28;20139;-62
2022/01/21 00:12:51;;;;;;;0.00;0.00;;;0.90;99.90;;;;;;5063746;28;20131;-61
2022/01/21 00:15:17;;;;;;;0.00;0.00;;;1.10;99.90;;;;;;5082050;28;20139;-62
2022/01/21 00:17:43;;;;;;;0.00;0.00;;;1.20;99.90;;;;;;5081903;28;20123;-62
2022/01/21 00:31:06;;;;;;;0.00;0.00;;;1.50;99.90;;;;;;5063465;28;20440;-62
2022/01/21 00:33:32;;;;;;;0.00;0.00;;;2.00;99.90;;;;;;5061769;28;20171;-62
2022/01/21 00:35:59;;;;;;;0.00;0.00;;;1.50;99.90;;;;;;5060265;28;20057;-62
2022/01/21 00:38:27;;;;;;;0.00;0.00;;;1.80;99.90;;;;;;5059881;28;20048;-62
2022/01/21 00:40:56;;;;;;;0.00;0.00;;;1.40;99.90;;;;;;5060439;28;20431;-62
2022/01/21 00:43:31;;;;;;;0.00;0.00;;;1.30;99.90;;;;;;5061973;28;20059;-62
2022/01/21 00:45:57;;;;;;;0.00;0.00;;;1.30;99.90;;;;;;5061042;28;20040;-62
2022/01/21 00:48:23;;;;;;;0.00;0.00;;;1.20;99.90;;;;;;5061631;28;20143;-62
2022/01/21 00:50:49;;;;;;;0.00;0.00;;;1.20;99.90;;;;;;5061134;28;20728;-62
2022/01/21 00:53:15;;;;;;;0.00;0.00;;;1.20;99.90;;;;;;5061019;28;20608;-62
2022/01/21 00:55:40;;;;;;;0.00;0.00;;;1.20;99.90;;;;;;5059131;28;20040;-58
2022/01/21 00:58:06;;;;;;;0.00;0.00;;;1.20;99.90;;;;;;5061678;28;20052;-62
2022/01/21 01:00:33;;;;;;;0.00;0.00;;;1.20;99.90;;;;;;5059452;28;20079;-62
2022/01/21 01:02:59;;;;;;;0.00;0.00;;;1.20;99.90;;;;;;5060412;28;20390;-63
2022/01/21 01:05:26;;;;;;;0.00;0.00;;;1.10;99.90;;;;;;5060937;28;20090;-63
2022/01/21 01:07:53;;;;;;;0.00;0.00;;;1.10;99.90;;;;;;5059468;28;20044;-62
2022/01/21 01:10:34;;;;;;;0.00;0.00;;;1.10;99.90;;;;;;5060249;28;20049;-62
2022/01/21 01:19:53;;;;;;;0.00;0.00;;;1.00;99.90;;;;;;5060821;28;20049;-61
2022/01/21 01:21:14;;;;;;;0.00;0.00;;;1.00;99.90;;;;;;5060033;28;20056;-62
2022/01/21 01:24:02;;;;;;;0.00;0.00;;;1.00;99.90;;;;;;5058597;28;20123;-62
2022/01/21 01:29:10;;;;;;;0.00;0.00;;;1.00;99.90;;;;;;5072179;28;20040;-61
2022/01/21 01:31:36;;;;;;;0.00;0.00;;;0.00;99.90;;;;;;5060514;28;20549;-62
2022/01/21 01:34:02;;;;;;;0.00;0.00;;;1.20;99.90;;;;;;5060735;28;20037;-62
2022/01/21 01:36:28;;;;;;;0.00;0.00;;;1.20;99.90;;;;;;5059588;28;20053;-62
2022/01/21 01:41:25;;;;;;;0.00;0.00;;;1.30;99.90;;;;;;5060806;28;20404;-62
2022/01/21 01:49:32;;;;;;;0.00;0.00;;;1.40;99.90;;;;;;5059611;28;20075;-62
2022/01/21 01:52:00;;;;;;;0.00;0.00;;;1.40;99.90;;;;;;5060275;28;20102;-62
2022/01/21 01:54:27;;;;;;;0.00;0.00;;;1.50;99.90;;;;;;5059452;28;20044;-62
2022/01/21 01:56:56;;;;;;;0.00;0.00;;;1.50;99.90;;;;;;5059021;28;20075;-62
2022/01/21 01:59:22;;;;;;;0.00;0.00;;;1.50;99.90;;;;;;5060310;28;20060;-62
2022/01/21 02:01:58;;;;;;;0.00;0.00;;;1.50;99.90;;;;;;5079084;22;20044;-68
2022/01/21 02:04:25;;;;;;;0.00;0.00;;;1.90;99.90;;;;;;5068083;28;20083;-68
2022/01/21 02:06:51;;;;;;;0.00;0.00;;;1.50;99.90;;;;;;5060058;28;20093;-69
2022/01/21 02:09:17;;;;;;;0.00;0.00;;;1.60;99.90;;;;;;5041606;28;20048;-69
2022/01/21 02:11:42;;;;;;;0.00;0.00;;;1.60;99.90;;;;;;5041807;28;20507;-68
2022/01/21 02:14:13;;;;;;;0.00;0.00;;;1.60;99.90;;;;;;5059853;28;20052;-68
2022/01/21 02:22:14;;;;;;;0.00;0.00;;;1.90;99.90;;;;;;5060094;28;20052;-68
2022/01/21 02:27:12;;;;;;;0.00;0.00;;;1.60;99.90;;;;;;5061384;28;20044;-68
2022/01/21 02:29:51;;;;;;;0.00;0.00;;;1.60;99.90;;;;;;5069680;28;20106;-68
2022/01/21 02:32:18;;;;;;;0.00;0.00;;;2.80;99.90;;;;;;5041086;28;20131;-68
2022/01/21 02:34:45;;;;;;;0.00;0.00;;;1.50;99.90;;;;;;5059842;28;20922;-67
2022/01/21 02:37:13;;;;;;;0.00;0.00;;;1.50;99.90;;;;;;5059895;28;20123;-66
2022/01/21 02:39:39;;;;;;;0.00;0.00;;;1.40;99.90;;;;;;5059123;28;20047;-67
2022/01/21 02:42:05;;;;;;;0.00;0.00;;;1.40;99.90;;;;;;5058810;28;20060;-67
2022/01/21 02:44:31;;;;;;;0.00;0.00;;;1.30;99.90;;;;;;5041781;28;20074;-67
2022/01/21 02:47:00;;;;;;;0.00;0.00;;;1.30;99.90;;;;;;5059370;28;20044;-67
2022/01/21 02:49:26;;;;;;;0.00;0.00;;;1.20;99.90;;;;;;5059972;28;20083;-66
2022/01/21 02:51:54;;;;;;;0.00;0.00;;;1.20;99.90;;;;;;5058839;28;20076;-66
2022/01/21 02:54:20;;;;;;;0.00;0.00;;;1.20;99.90;;;;;;5059540;28;20040;-67
2022/01/21 02:56:46;;;;;;;0.00;0.00;;;1.80;99.90;;;;;;5063095;28;20040;-67
2022/01/21 02:59:12;;;;;;;0.00;0.00;;;1.20;99.90;;;;;;5062935;28;20040;-67
2022/01/21 03:01:41;;;;;;;0.00;0.00;;;1.20;99.90;;;;;;5063680;28;20065;-66
2022/01/21 03:04:10;;;;;;;0.00;0.00;;;1.10;99.90;;;;;;5063543;28;20056;-67
2022/01/21 03:06:37;;;;;;;0.00;0.00;;;1.10;99.90;;;;;;5063724;28;20119;-66
2022/01/21 03:09:05;;;;;;;0.00;0.00;;;1.20;99.90;;;;;;5043745;28;20099;-67
2022/01/21 03:11:31;;;;;;;0.00;0.00;;;1.10;99.90;;;;;;5063307;28;20517;-67
2022/01/21 03:13:57;;;;;;;0.00;0.00;;;1.00;99.90;;;;;;5062971;28;20052;-67
2022/01/21 03:16:26;;;;;;;0.00;0.00;;;1.00;99.90;;;;;;5062043;28;20044;-67
2022/01/21 03:18:52;;;;;;;0.00;0.00;;;1.00;99.90;;;;;;5063205;28;20414;-67
2022/01/21 03:21:18;;;;;;;0.00;0.00;;;1.40;99.90;;;;;;5062785;28;20048;-68
2022/01/21 03:23:46;;;;;;;0.00;0.00;;;1.10;99.90;;;;;;5062167;28;20044;-67
2022/01/21 03:26:17;;;;;;;0.00;0.00;;;1.10;99.90;;;;;;5062163;28;20049;-68
2022/01/21 03:28:45;;;;;;;0.00;0.00;;;1.10;99.90;;;;;;5072365;28;20044;-68
2022/01/21 03:31:11;;;;;;;0.00;0.00;;;1.20;99.90;;;;;;5063994;28;20420;-65
2022/01/21 03:33:36;;;;;;;0.00;0.00;;;1.20;99.90;;;;;;5062918;28;20591;-67
2022/01/21 03:36:02;;;;;;;0.00;0.00;;;1.20;99.90;;;;;;5061950;28;20080;-67
2022/01/21 03:38:28;;;;;;;0.00;0.00;;;1.30;99.90;;;;;;5062445;28;20151;-67
2022/01/21 03:40:55;;;;;;;0.00;0.00;;;1.40;99.90;;;;;;5062220;28;20186;-67
2022/01/21 03:43:22;;;;;;;0.00;0.00;;;1.40;99.90;;;;;;5062130;28;20056;-68
2022/01/21 03:45:48;;;;;;;0.00;0.00;;;1.40;99.90;;;;;;5062500;28;20037;-68
2022/01/21 03:48:14;;;;;;;0.00;0.00;;;1.40;99.90;;;;;;5062541;28;20044;-68
2022/01/21 03:50:40;;;;;;;0.00;0.00;;;1.40;99.90;;;;;;5061478;28;20036;-68
2022/01/21 03:53:06;;;;;;;0.00;0.00;;;1.40;99.90;;;;;;5061375;28;20049;-65
2022/01/21 03:55:32;;;;;;;0.00;0.00;;;1.50;99.90;;;;;;5062645;28;20127;-68
2022/01/21 03:57:59;;;;;;;0.00;0.00;;;1.50;99.90;;;;;;5062050;28;20045;-68
2022/01/21 04:00:30;;;;;;;0.00;0.00;;;2.10;99.90;;;;;;5044591;28;20063;-68
2022/01/21 04:02:56;;;;;;;0.00;0.00;;;1.50;99.90;;;;;;5061421;28;20047;-68
2022/01/21 04:05:22;;;;;;;0.00;0.00;;;1.50;99.90;;;;;;5062028;28;20521;-68
2022/01/21 04:07:48;;;;;;;0.00;0.00;;;1.40;99.90;;;;;;5061397;28;20091;-68
2022/01/21 04:10:14;;;;;;;0.00;0.00;;;1.40;99.90;;;;;;5042767;28;20051;-68
2022/01/21 04:12:40;;;;;;;0.00;0.00;;;1.40;99.90;;;;;;5062547;28;20036;-67
2022/01/21 04:15:06;;;;;;;0.00;0.00;;;1.40;99.90;;;;;;5060680;28;20059;-67
2022/01/21 04:17:32;;;;;;;0.00;0.00;;;1.40;99.90;;;;;;5044129;28;20082;-66
2022/01/21 04:19:57;;;;;;;0.00;0.00;;;1.40;99.90;;;;;;5060688;28;20474;-68
2022/01/21 04:22:23;;;;;;;0.00;0.00;;;1.40;99.90;;;;;;5060525;28;20046;-66
2022/01/21 04:24:50;;;;;;;0.00;0.00;;;1.60;99.90;;;;;;5042926;28;20044;-67
2022/01/21 04:27:17;;;;;;;0.00;0.00;;;1.40;99.90;;;;;;5063915;28;20069;-66
2022/01/21 04:29:42;;;;;;;0.00;0.00;;;0.20;99.90;;;;;;5069954;28;20040;-68
2022/01/21 04:32:09;;;;;;;0.00;0.00;;;1.30;99.90;;;;;;5061726;28;20055;-67
2022/01/21 04:34:35;;;;;;;0.00;0.00;;;1.30;99.90;;;;;;5061891;28;20529;-67
2022/01/21 04:37:01;;;;;;;0.00;0.00;;;1.30;99.90;;;;;;5061061;28;20055;-67
2022/01/21 04:39:33;;;;;;;0.00;0.00;;;1.30;99.90;;;;;;5060534;28;20056;-66
2022/01/21 04:47:28;;;;;;;;;;;1.30;99.90;;;;;;5061732;28;20135;-67
2022/01/21 04:49:54;;;;;;;0.00;0.00;;;1.20;99.90;;;;;;5061346;28;20003;-67
2022/01/21 04:52:21;;;;;;;0.00;0.00;;;1.30;99.90;;;;;;5042443;28;20052;-67
2022/01/21 04:54:47;;;;;;;0.00;0.00;;;1.30;99.90;;;;;;5060762;28;20158;-67
2022/01/21 04:57:13;;;;;;;0.00;0.00;;;1.40;99.90;;;;;;5043172;28;20056;-67
2022/01/21 04:59:39;;;;;;;0.00;0.00;;;1.40;99.90;;;;;;5061574;28;20045;-67
2022/01/21 05:02:05;;;;;;;0.00;0.00;;;1.40;99.90;;;;;;5060206;28;20434;-67
2022/01/21 05:04:31;;;;;;;0.00;0.00;;;1.40;99.90;;;;;;5061417;28;20128;-66
2022/01/21 05:06:58;;;;;;;0.00;0.00;;;1.40;99.90;;;;;;5060838;28;20697;-66
2022/01/21 05:09:30;;;;;;;0.00;0.00;;;1.40;99.90;;;;;;5059753;28;20048;-67
2022/01/21 05:11:57;;;;;;;0.00;0.00;;;1.50;99.90;;;;;;5042785;28;20089;-67
2022/01/21 05:14:27;;;;;;;0.00;0.00;;;1.50;99.90;;;;;;5061004;28;20079;-67
2022/01/21 05:17:01;;;;;;;0.00;0.00;;;1.50;99.90;;;;;;5042304;28;20063;-66
2022/01/21 05:19:27;;;;;;;0.00;0.00;;;1.50;99.90;;;;;;5060714;28;20106;-66
2022/01/21 05:21:53;;;;;;;0.00;0.00;;;1.50;99.90;;;;;;5060757;28;20478;-68
2022/01/21 05:24:20;;;;;;;0.00;0.00;;;1.50;99.90;;;;;;5059882;28;20107;-67
2022/01/21 05:26:56;;;;;;;0.00;0.00;;;1.60;99.90;;;;;;5059465;28;20527;-66
2022/01/21 05:29:29;;;;;;;0.00;0.00;;;1.60;99.90;;;;;;5071446;28;20098;-68
2022/01/21 05:31:56;;;;;;;0.00;0.00;;;1.60;99.90;;;;;;5060107;28;20080;-67
2022/01/21 05:34:22;;;;;;;0.00;0.00;;;1.60;99.90;;;;;;5042061;28;20140;-67
2022/01/21 05:36:47;;;;;;;0.00;0.00;;;1.60;99.90;;;;;;5059712;28;20131;-67
2022/01/21 05:39:15;;;;;;;0.00;0.00;;;1.60;99.90;;;;;;5059966;28;20091;-67
2022/01/21 05:41:45;;;;;;;0.00;0.00;;;1.60;99.90;;;;;;5059677;28;20433;-67
2022/01/21 05:44:21;;;;;;;0.00;0.00;;;1.60;99.90;;;;;;5060202;28;20845;-66
2022/01/21 05:46:55;;;;;;;0.00;0.00;;;1.60;99.90;;;;;;5041980;28;20049;-67
2022/01/21 05:49:22;;;;;;;0.00;0.00;;;1.50;99.90;;;;;;5059584;28;20139;-66
2022/01/21 05:51:48;;;;;;;0.00;0.00;;;1.50;99.90;;;;;;5060004;28;20135;-66
2022/01/21 05:54:14;;;;;;;0.00;0.00;;;1.40;99.90;;;;;;5059559;28;20045;-67
2022/01/21 05:56:40;;;;;;;0.00;0.00;;;1.30;99.90;;;;;;5060344;28;20067;-66
2022/01/21 05:59:07;;;;;;;0.00;0.00;;;1.50;99.90;;;;;;5041742;28;20055;-67
2022/01/21 06:01:33;;;;;;;0.00;0.00;;;1.20;99.90;;;;;;5041507;28;20147;-69
2022/01/21 06:04:01;;;;;;;0.00;0.00;;;1.20;99.90;;;;;;5060039;28;20059;-67
2022/01/21 06:06:27;;;;;;;0.00;0.00;;;1.30;99.90;;;;;;5058957;28;20152;-69
2022/01/21 06:08:53;;;;;;;0.00;0.00;;;-0.40;99.90;;;;;;5041065;28;20051;-67
2022/01/21 06:11:19;;;;;;;0.00;0.00;;;1.10;99.90;;;;;;5059838;28;20052;-67
2022/01/21 06:13:46;;;;;;;0.00;0.00;;;1.10;99.90;;;;;;5059726;28;20132;-67
2022/01/21 06:16:12;;;;;;;0.00;0.00;;;1.10;99.90;;;;;;5059414;28;20403;-67
2022/01/21 06:18:37;;;;;;;0.00;0.00;;;1.20;99.90;;;;;;5059960;28;20059;-67
2022/01/21 06:21:03;;;;;;;0.00;0.00;;;1.20;99.90;;;;;;5059852;28;20131;-66
2022/01/21 06:23:29;;;;;;;0.00;0.00;;;1.30;99.90;;;;;;5058716;28;20037;-66
2022/01/21 06:25:55;;;;;;;0.00;0.00;;;1.40;99.90;;;;;;5059053;28;20048;-66
2022/01/21 06:28:21;;;;;;;0.00;0.00;;;1.40;99.90;;;;;;5048146;28;20056;-66
2022/01/21 06:30:49;;;;;;;0.00;0.00;;;1.40;99.90;;;;;;5045637;28;20536;-66
2022/01/21 06:33:14;;;;;;;0.00;0.00;;;1.40;99.90;;;;;;5059773;28;20053;-67
2022/01/21 06:35:40;;;;;;;0.00;0.00;;;1.40;99.90;;;;;;5059301;28;20052;-66
2022/01/21 06:38:06;;;;;;;0.00;0.00;;;1.40;99.90;;;;;;5059737;28;20051;-66
2022/01/21 06:40:32;;;;;;;0.00;0.00;;;1.50;99.90;;;;;;5042147;28;20044;-67
2022/01/21 06:43:02;;;;;;;0.00;0.00;;;1.50;99.90;;;;;;5059898;28;20045;-67
2022/01/21 06:45:27;;;;;;;0.00;0.00;;;1.50;99.90;;;;;;5059412;28;20055;-67
2022/01/21 06:47:53;;;;;;;0.00;0.00;;;1.50;99.90;;;;;;5059375;28;20041;-66
2022/01/21 06:50:19;;;;;;;0.00;0.00;;;1.50;99.90;;;;;;5059827;28;20530;-66
2022/01/21 06:52:44;;;;;;;0.00;0.00;;;1.80;99.90;;;;;;5057985;28;20133;-67
2022/01/21 06:55:10;;;;;;;0.00;0.00;;;1.40;99.90;;;;;;5041840;28;20048;-67
2022/01/21 06:57:39;;;;;;;0.00;0.00;;;1.40;99.90;;;;;;5059867;28;20041;-66
2022/01/21 07:00:07;;;;;;;0.00;0.00;;;1.40;99.90;;;;;;5059547;28;20048;-66
2022/01/21 07:02:33;;;;;;;0.00;0.00;;;1.50;99.90;;;;;;5058439;28;20059;-66
2022/01/21 07:04:58;;;;;;;0.00;0.00;;;1.50;99.90;;;;;;5059155;28;20049;-65
2022/01/21 07:07:24;;;;;;;0.00;0.00;;;1.50;99.90;;;;;;5059297;28;20044;-65
2022/01/21 07:09:50;;;;;;;0.00;0.00;;;1.50;99.90;;;;;;5058565;28;20041;-66
2022/01/21 07:12:15;;;;;;;0.00;0.00;;;1.50;99.90;;;;;;5058404;28;20162;-65
2022/01/21 07:14:41;;;;;;;0.00;0.00;;;1.50;99.90;;;;;;5041073;28;20051;-66
2022/01/21 07:17:07;;;;;;;0.00;0.00;;;1.90;99.90;;;;;;5059455;28;20055;-66
2022/01/21 07:19:33;;;;;;;0.00;0.00;;;1.50;99.90;;;;;;5058923;28;20132;-66
2022/01/21 07:21:59;;;;;;;0.00;0.00;;;1.50;99.90;;;;;;5056696;28;20052;-66
2022/01/21 07:24:24;;;;;;;0.00;0.00;;;1.40;99.90;;;;;;5058040;28;20072;-65
2022/01/21 07:26:50;;;;;;;0.00;0.00;;;1.40;99.90;;;;;;5058865;28;20131;-66
2022/01/21 07:29:16;;;;;;;0.00;0.00;;;2.00;99.90;;;;;;5070643;28;20037;-67
2022/01/21 07:31:41;;;;;;;0.00;0.00;;;1.40;99.90;;;;;;5056985;28;20076;-66
2022/01/21 07:34:07;;;;;;;0.00;0.00;;;1.40;99.90;;;;;;5059503;28;20106;-68
2022/01/21 07:36:34;;;;;;;0.00;0.00;;;1.40;99.90;;;;;;5059177;28;20040;-67
2022/01/21 07:39:00;;;;;;;0.00;0.00;;;1.40;99.90;;;;;;5057721;28;20048;-68
2022/01/21 07:41:26;;;;;;;0.00;0.00;;;1.60;99.90;;;;;;5041791;28;20040;-68
2022/01/21 07:43:53;;;;;;;0.00;0.00;;;1.40;99.90;;;;;;5062347;28;20044;-68
2022/01/21 07:46:19;;;;;;;0.00;0.00;;;1.50;99.90;;;;;;5044577;28;20055;-67
2022/01/21 07:48:45;;;;;;;0.00;0.00;;;1.40;99.90;;;;;;5061883;28;20055;-67
2022/01/21 07:51:11;;;;;;;0.00;0.00;;;1.80;99.90;;;;;;5062063;28;20135;-65
2022/01/21 07:53:37;;;;;;;0.00;0.00;;;1.40;99.90;;;;;;5062432;28;20036;-67
2022/01/21 07:56:04;;;;;;;0.00;0.00;;;1.50;99.90;;;;;;5061969;28;20052;-67
2022/01/21 07:58:30;;;;;;;0.00;0.00;;;1.40;99.90;;;;;;5061633;28;20048;-66
2022/01/21 08:00:55;;;;;;;0.00;0.00;;;1.50;99.90;;;;;;5061804;28;20044;-67
2022/01/21 08:03:23;;;;;;;0.00;0.00;;;1.40;99.90;;;;;;5061969;28;20064;-67
2022/01/21 08:05:49;;;;;;;0.00;0.00;;;1.40;99.90;;;;;;5062105;28;20045;-67
2022/01/21 08:08:14;;;;;;;0.00;0.00;;;1.40;99.90;;;;;;5060633;28;20036;-67
2022/01/21 08:10:40;;;;;;;0.00;0.00;;;1.50;99.90;;;;;;5062642;28;20119;-67
2022/01/21 08:13:06;;;;;;;0.00;0.00;;;1.50;99.90;;;;;;5062228;28;20054;-67
2022/01/21 08:15:31;;;;;;;0.00;0.00;;;1.50;99.90;;;;;;5044054;28;20045;-67
2022/01/21 08:17:57;;;;;;;0.00;0.00;;;1.50;99.90;;;;;;5060830;28;20032;-67
2022/01/21 08:20:23;;;;;;;0.00;0.00;;;1.60;99.90;;;;;;5062150;28;20044;-66
2022/01/21 08:22:48;;;;;;;0.00;0.00;;;1.60;99.90;;;;;;5060544;28;20140;-66
2022/01/21 08:25:14;;;;;;;0.00;0.00;;;1.60;99.90;;;;;;5043980;28;20049;-67
2022/01/21 08:27:40;;;;;;;0.00;0.00;;;1.70;99.90;;;;;;5063769;28;20486;-66
2022/01/21 08:30:07;;;;;;;0.00;0.00;;;1.70;99.90;;;;;;5070641;28;20415;-66
2022/01/21 08:32:33;;;;;;;0.00;0.00;;;1.70;99.90;;;;;;5061319;28;20611;-66
2022/01/21 08:34:58;;;;;;;0.00;0.00;;;1.70;99.90;;;;;;5061366;28;20463;-66
2022/01/21 08:37:24;;;;;;;0.00;0.00;;;1.80;99.90;;;;;;5059566;28;20082;-66
2022/01/21 08:39:50;;;;;;;0.00;0.00;;;1.90;99.90;;;;;;5061109;28;20113;-66
2022/01/21 08:42:16;;;;;;;0.00;0.00;;;2.00;99.90;;;;;;5061556;28;20079;-66
2022/01/21 08:44:42;;;;;;;0.00;0.00;;;2.20;99.90;;;;;;5042470;28;20067;-65
2022/01/21 08:47:08;;;;;;;0.00;0.00;;;2.20;99.90;;;;;;5061937;28;20060;-67
2022/01/21 08:49:34;;;;;;;0.00;0.00;;;2.30;99.90;;;;;;5061091;28;20102;-67
2022/01/21 08:52:00;;;;;;;0.00;0.00;;;2.40;99.90;;;;;;5060915;28;20041;-66
2022/01/21 08:54:27;;;;;;;0.00;0.00;;;2.90;99.90;;;;;;5059584;28;20040;-67
2022/01/21 08:56:54;;;;;;;0.00;0.00;;;2.60;99.90;;;;;;5060778;28;20067;-68
2022/01/21 08:59:20;;;;;;;0.00;0.00;;;2.70;99.90;;;;;;5061124;28;20079;-67
2022/01/21 09:01:49;;;;;;;0.00;0.00;;;2.80;99.90;;;;;;5062276;28;20174;-67
2022/01/21 09:04:15;;;;;;;0.00;0.00;;;2.90;99.90;;;;;;5080613;28;20047;-66
2022/01/21 09:06:41;;;;;;;0.00;0.00;;;2.90;99.90;;;;;;5080289;28;20051;-68
2022/01/21 09:09:08;;;;;;;0.00;0.00;;;2.90;99.90;;;;;;5081090;28;20085;-68
2022/01/21 09:11:34;;;;;;;0.00;0.00;;;3.10;99.90;;;;;;5080493;28;20051;-69
2022/01/21 09:14:00;;;;;;;0.00;0.00;;;3.00;99.90;;;;;;5079866;28;20044;-68
2022/01/21 09:16:26;;;;;;;0.00;0.00;;;4.30;99.90;;;;;;5080944;28;20209;-69
2022/01/21 09:18:55;;;;;;;0.00;0.00;;;3.10;99.90;;;;;;5080796;28;20502;-69
2022/01/21 09:21:27;;;;;;;0.00;0.00;;;3.10;99.90;;;;;;5080187;28;20040;-69
2022/01/21 09:23:54;;;;;;;0.00;0.00;;;3.10;99.90;;;;;;5061973;28;20048;-69
2022/01/21 09:26:22;;;;;;;0.00;0.00;;;3.10;99.90;;;;;;5062251;28;20048;-69
2022/01/21 09:28:49;;;;;;;0.00;0.00;;;3.20;99.90;;;;;;5074454;28;20939;-70
2022/01/21 09:31:15;;;;;;;0.00;0.00;;;4.00;99.90;;;;;;5042507;28;20109;-69
2022/01/21 09:33:41;;;;;;;0.00;0.00;;;3.20;99.90;;;;;;5060251;28;20086;-68
2022/01/21 09:36:09;;;;;;;0.00;0.00;;;3.30;99.90;;;;;;5060805;28;20533;-70
2022/01/21 09:38:34;;;;;;;0.00;0.00;;;3.30;99.90;;;;;;5058740;28;20044;-69
2022/01/21 09:41:00;;;;;;;0.00;0.00;;;3.40;99.90;;;;;;5060061;28;20214;-69
2022/01/21 09:43:26;;;;;;;0.00;0.00;;;3.40;99.90;;;;;;5062479;28;20127;-69
2022/01/21 09:45:55;;;;;;;0.00;0.00;;;3.40;99.90;;;;;;5060719;28;20170;-69
2022/01/21 09:48:25;;;;;;;0.00;0.00;;;3.50;99.90;;;;;;5059331;28;20045;-69
2022/01/21 09:50:55;;;;;;;0.00;0.00;;;3.40;99.90;;;;;;5059624;28;20052;-69
2022/01/21 09:53:32;;;;;;;0.00;0.00;;;3.60;99.90;;;;;;5059381;28;20051;-69
2022/01/21 09:56:01;;;;;;;0.00;0.00;;;3.60;99.90;;;;;;5048747;28;20036;-69
2022/01/21 09:58:29;;;;;;;0.00;0.00;;;3.60;99.90;;;;;;5073421;28;20059;-69
2022/01/21 10:01:00;;;;;;;0.00;0.00;;;3.70;99.90;;;;;;5078274;28;20040;-69
2022/01/21 10:03:27;;;;;;;0.00;0.00;;;3.70;99.90;;;;;;5041087;28;20123;-69
2022/01/21 10:05:53;;;;;;;0.00;0.00;;;3.80;99.90;;;;;;5059311;28;20129;-69
2022/01/21 10:08:23;;;;;;;0.00;0.00;;;3.80;99.90;;;;;;5041317;28;20044;-68
2022/01/21 10:10:49;;;;;;;0.00;0.00;;;3.90;99.90;;;;;;5059294;28;20043;-67
2022/01/21 10:13:17;;;;;;;0.00;0.00;;;3.90;99.90;;;;;;5071067;28;20058;-68
2022/01/21 10:15:44;;;;;;;0.00;0.00;;;3.90;99.90;;;;;;5079650;28;20044;-68
2022/01/21 10:18:18;;;;;;;0.00;0.00;;;4.00;99.90;;;;;;5080360;28;20039;-68
2022/01/21 10:21:12;;;;;;;0.00;0.00;;;4.00;99.90;;;;;;5079006;28;20055;-68
2022/01/21 10:23:41;;;;;;;0.00;0.00;;;4.10;99.90;;;;;;5079589;28;20060;-68
2022/01/21 10:26:11;;;;;;;0.00;0.00;;;4.20;99.90;;;;;;5061192;28;20059;-68
2022/01/21 10:28:45;;;;;;;0.00;0.00;;;4.20;99.90;;;;;;5055691;28;20055;-68
2022/01/21 10:31:10;;;;;;;0.00;0.00;;;4.20;99.90;;;;;;5061299;28;20056;-63
2022/01/21 10:33:43;;;;;;;0.00;0.00;;;4.20;99.90;;;;;;5058876;28;20048;-70
2022/01/21 10:36:12;;;;;;;0.00;0.00;;;4.20;99.90;;;;;;5059623;28;20049;-67
2022/01/21 10:38:42;;;;;;;0.00;0.00;;;4.30;99.90;;;;;;5059531;28;20054;-67
2022/01/21 10:41:12;;;;;;;0.00;0.00;;;4.30;99.90;;;;;;5041446;28;20060;-67
2022/01/21 10:43:37;;;;;;;0.00;0.00;;;4.30;99.90;;;;;;5060078;28;20045;-68
2022/01/21 10:46:04;;;;;;;0.00;0.00;;;4.80;99.90;;;;;;5059442;28;20059;-67
2022/01/21 10:48:58;;;;;;;0.00;0.00;;;4.40;99.90;;;;;;5060561;28;20048;-68
2022/01/21 10:51:28;;;;;;;0.00;0.00;;;4.50;99.90;;;;;;5079067;28;20450;-67
2022/01/21 10:53:55;;;;;;;0.00;0.00;;;4.50;99.90;;;;;;5075245;28;20040;-67
2022/01/21 10:56:23;;;;;;;0.00;0.00;;;4.50;99.90;;;;;;5078314;28;20036;-67
2022/01/21 10:58:53;;;;;;;0.00;0.00;;;4.50;99.90;;;;;;5079131;28;20601;-67
2022/01/21 11:01:23;;;;;;;0.00;0.00;;;4.50;99.90;;;;;;5079060;28;20040;-66
2022/01/21 11:04:11;;;;;;;0.00;0.00;;;4.50;99.90;;;;;;5078359;28;20044;-67
2022/01/21 11:06:54;;;;;;;0.00;0.00;;;4.50;99.90;;;;;;5071680;28;20045;-66
2022/01/21 11:09:29;;;;;;;0.00;0.00;;;4.50;99.90;;;;;;5058587;28;20083;-66
2022/01/21 11:12:11;;;;;;;;;;;4.40;99.90;;;;;;5059771;28;20040;-67
2022/01/21 11:14:53;;;;;;;0.00;0.00;;;4.40;99.90;;;;;;5058299;28;20003;-67
2022/01/21 11:17:19;;;;;;;0.00;0.00;;;4.40;99.90;;;;;;5071053;28;20097;-67
2022/01/21 11:20:06;;;;;;;0.00;0.00;;;4.40;99.90;;;;;;5082911;28;20076;-67
2022/01/21 11:22:51;;;;;;;0.00;0.00;;;4.50;99.90;;;;;;5074823;28;20052;-68
2022/01/21 11:25:16;;;;;;;0.00;0.00;;;4.40;99.90;;;;;;5062018;28;20048;-67
2022/01/21 11:27:55;;;;;;;0.00;0.00;;;4.40;99.90;;;;;;5065201;28;20048;-68
2022/01/21 11:30:20;;;;;;;0.00;0.00;;;4.40;99.90;;;;;;5074923;28;20511;-68
2022/01/21 11:32:46;;;;;;;0.00;0.00;;;4.40;99.90;;;;;;5082276;28;20048;-67
2022/01/21 11:35:11;;;;;;;0.00;0.00;;;4.50;99.90;;;;;;5082848;28;20066;-68
2022/01/21 11:37:38;;;;;;;0.00;0.00;;;4.50;99.90;;;;;;5082815;28;20070;-68
2022/01/21 11:40:05;;;;;;;0.00;0.00;;;4.60;99.90;;;;;;5064407;28;20040;-68
2022/01/21 11:42:35;;;;;;;0.00;0.00;;;4.60;99.90;;;;;;5076089;28;20073;-66
2022/01/21 11:45:17;;;;;;;0.00;0.00;;;4.60;99.90;;;;;;5064778;28;20583;-67
2022/01/21 11:48:01;;;;;;;0.00;0.00;;;4.80;99.90;;;;;;5082591;28;20070;-67
2022/01/21 11:50:30;;;;;;;0.00;0.00;;;4.70;99.90;;;;;;5082810;28;20050;-67
2022/01/21 11:52:56;;;;;;;0.00;0.00;;;4.70;99.90;;;;;;5081759;28;20093;-68
2022/01/21 11:55:41;;;;;;;0.00;0.00;;;4.80;99.90;;;;;;5078737;28;20457;-68
2022/01/21 11:58:20;;;;;;;0.00;0.00;;;6.20;99.90;;;;;;5078865;28;20050;-67
2022/01/21 12:00:48;;;;;;;0.00;0.00;;;4.80;99.90;;;;;;5081962;28;20410;-67
2022/01/21 12:03:21;;;;;;;0.00;0.00;;;4.90;99.90;;;;;;5082286;28;20044;-67
2022/01/21 12:05:47;;;;;;;0.00;0.00;;;4.90;99.90;;;;;;5082343;28;20696;-68
2022/01/21 12:08:12;;;;;;;0.00;0.00;;;4.90;99.90;;;;;;5081789;28;20044;-67
2022/01/21 12:10:43;;;;;;;0.00;0.00;;;5.00;99.90;;;;;;5082228;28;20047;-68
2022/01/21 12:13:22;;;;;;;0.00;0.00;;;5.10;99.90;;;;;;5082843;28;20058;-68
2022/01/21 12:16:23;;;;;;;0.00;0.00;;;5.20;99.90;;;;;;5082037;28;20101;-67
2022/01/21 12:21:32;;;;;;;0.00;0.00;;;5.40;99.90;;;;;;5080683;28;20156;-68
2022/01/21 12:23:59;;;;;;;0.00;0.00;;;5.50;99.90;;;;;;5066241;28;20032;-67
2022/01/21 12:26:29;;;;;;;0.00;0.00;;;5.50;99.90;;;;;;5062184;28;20044;-67
2022/01/21 12:28:57;;;;;;;0.00;0.00;;;5.60;99.90;;;;;;5071733;28;20126;-67
2022/01/21 12:34:55;;;;;;;0.00;0.00;;;5.70;99.90;;;;;;5048029;28;20427;-69
2022/01/21 12:37:25;;;;;;;0.00;0.00;;;5.70;99.90;;;;;;5042407;28;20539;-67
2022/01/21 12:39:50;;;;;;;0.00;0.00;;;5.70;99.90;;;;;;5061096;28;20450;-67
2022/01/21 12:42:25;;;;;;;0.00;0.00;;;5.80;99.90;;;;;;5061618;28;20136;-67
2022/01/21 12:44:55;;;;;;;0.00;0.00;;;5.80;99.90;;;;;;5061516;28;20084;-67
2022/01/21 12:47:28;;;;;;;0.00;0.00;;;5.80;99.90;;;;;;5061354;28;20152;-67
2022/01/21 12:49:55;;;;;;;0.00;0.00;;;5.90;99.90;;;;;;5060756;28;20290;-66
2022/01/21 12:52:46;;;;;;;0.00;0.00;;;5.80;99.90;;;;;;5042537;28;20044;-67
2022/01/21 12:58:10;;;;;;;0.00;0.00;;;5.90;99.90;;;;;;5061450;28;20052;-68
2022/01/21 13:00:38;;;;;;;0.00;0.00;;;5.90;99.90;;;;;;5061617;28;20059;-64
2022/01/21 13:03:13;;;;;;;0.00;0.00;;;5.90;99.90;;;;;;5042673;28;20056;-67
2022/01/21 13:05:46;;;;;;;0.00;0.00;;;5.90;99.90;;;;;;5061870;28;20680;-65
2022/01/21 13:08:34;;;;;;;0.00;0.00;;;5.90;99.90;;;;;;5060443;28;20057;-65
2022/01/21 13:11:23;;;;;;;0.00;0.00;;;6.10;99.90;;;;;;5060208;28;20046;-62
2022/01/21 13:14:13;;;;;;;0.00;0.00;;;6.10;99.90;;;;;;5060581;28;20060;-63
2022/01/21 13:16:40;;;;;;;0.00;0.00;;;6.00;99.90;;;;;;5060896;28;20142;-63
2022/01/21 13:19:06;;;;;;;0.00;0.00;;;6.00;99.90;;;;;;5042997;28;20359;-63
2022/01/21 13:21:34;;;;;;;0.00;0.00;;;6.00;99.90;;;;;;5041845;28;20044;-62
2022/01/21 13:24:02;;;;;;;0.00;0.00;;;6.10;99.90;;;;;;5059879;28;20036;-63
2022/01/21 13:26:39;;;;;;;0.00;0.00;;;6.00;99.90;;;;;;5060419;28;20465;-63
2022/01/21 13:29:10;;;;;;;0.00;0.00;;;6.00;99.90;;;;;;5070306;28;20077;-64
2022/01/21 13:31:51;;;;;;;0.00;0.00;;;6.00;99.90;;;;;;5042704;28;20052;-62
2022/01/21 13:34:25;;;;;;;0.00;0.00;;;6.00;99.90;;;;;;5060166;28;20045;-63
2022/01/21 13:36:54;;;;;;;0.00;0.00;;;6.00;99.90;;;;;;5059710;28;21542;-62
2022/01/21 13:39:23;;;;;;;0.00;0.00;;;6.00;99.90;;;;;;5041643;28;20070;-62
2022/01/21 13:41:59;;;;;;;0.00;0.00;;;6.00;99.90;;;;;;5042003;28;20040;-63
2022/01/21 13:44:33;;;;;;;0.00;0.00;;;6.10;99.90;;;;;;5041830;28;20080;-63
2022/01/21 13:47:01;;;;;;;0.00;0.00;;;6.10;99.90;;;;;;5058001;28;20490;-63
2022/01/21 13:49:27;;;;;;;0.00;0.00;;;6.10;99.90;;;;;;5059615;28;20049;-63
2022/01/21 13:51:58;;;;;;;0.08;0.08;;;6.00;99.90;;;;;;5040962;28;20051;-63
2022/01/21 13:54:42;;;;;;;0.00;0.00;;;6.10;99.90;;;;;;5042132;28;20399;-63